createdAt,value
2022-11-29T00:00:33.919Z,43.80
2022-11-29T00:03:00.568Z,43.20
2022-11-29T00:05:27.176Z,43.20
2022-11-29T00:07:53.673Z,43.10
2022-11-29T00:10:20.136Z,43.70
2022-11-29T00:12:46.570Z,43.70
2022-11-29T00:15:12.997Z,43.70
2022-11-29T00:17:39.500Z,43.70
2022-11-29T00:20:05.961Z,43.70
2022-11-29T00:22:32.419Z,43.20
2022-11-29T00:24:58.843Z,43.30
2022-11-29T00:27:25.266Z,43.10
2022-11-29T00:29:51.691Z,43.20
2022-11-29T00:32:18.203Z,43.70
2022-11-29T00:34:44.823Z,43.80
2022-11-29T00:37:11.514Z,43.10
2022-11-29T00:39:37.989Z,43.70
2022-11-29T00:42:04.468Z,43.10
2022-11-29T00:44:30.952Z,43.70
2022-11-29T00:46:57.371Z,43.70
2022-11-29T00:49:23.802Z,43.70
2022-11-29T00:51:50.275Z,43.20
2022-11-29T00:54:16.753Z,43.60
2022-11-29T00:56:43.228Z,43.70
2022-11-29T00:59:09.709Z,43.10
2022-11-29T01:01:36.220Z,43.60
2022-11-29T01:04:02.718Z,43.20
2022-11-29T01:06:29.189Z,43.60
2022-11-29T01:08:55.628Z,43.60
2022-11-29T01:11:22.091Z,43.20
2022-11-29T01:13:48.594Z,43.30
2022-11-29T01:16:15.073Z,43.70
2022-11-29T01:18:41.560Z,43.70
2022-11-29T01:21:08.055Z,43.80
2022-11-29T01:23:34.661Z,43.80
2022-11-29T01:26:01.111Z,43.20
2022-11-29T01:28:27.559Z,43.80
2022-11-29T01:30:54.082Z,43.50
2022-11-29T01:33:20.542Z,43.70
2022-11-29T01:35:47.006Z,43.70
2022-11-29T01:38:13.474Z,43.70
2022-11-29T01:40:39.952Z,43.20
2022-11-29T01:43:06.425Z,43.20
2022-11-29T01:45:32.870Z,43.70
2022-11-29T01:47:59.337Z,43.60
2022-11-29T01:50:25.832Z,43.60
2022-11-29T01:52:52.317Z,43.60
2022-11-29T01:55:18.749Z,43.60
2022-11-29T01:57:45.302Z,43.10
2022-11-29T02:00:11.768Z,43.50
2022-11-29T02:02:38.303Z,43.00
2022-11-29T02:05:04.823Z,43.50
2022-11-29T02:07:31.387Z,43.00
2022-11-29T02:09:57.888Z,43.60
2022-11-29T02:12:24.382Z,43.10
2022-11-29T02:14:50.866Z,43.00
2022-11-29T02:17:17.335Z,43.00
2022-11-29T02:19:43.758Z,43.50
2022-11-29T02:22:10.259Z,43.20
2022-11-29T02:24:36.731Z,43.10
2022-11-29T02:27:03.182Z,43.60
2022-11-29T02:29:29.614Z,43.50
2022-11-29T02:31:56.072Z,43.00
2022-11-29T02:34:22.557Z,43.50
2022-11-29T02:36:49.031Z,43.60
2022-11-29T02:39:15.527Z,43.60
2022-11-29T02:41:41.974Z,43.00
2022-11-29T02:44:08.447Z,43.60
2022-11-29T02:46:34.960Z,43.60
2022-11-29T02:49:01.406Z,43.50
2022-11-29T02:51:27.875Z,43.00
2022-11-29T02:53:54.332Z,43.60
2022-11-29T02:56:20.811Z,43.50
2022-11-29T02:58:47.243Z,43.50
2022-11-29T03:01:13.689Z,43.00
2022-11-29T03:03:40.188Z,43.50
2022-11-29T03:06:06.686Z,43.50
2022-11-29T03:08:33.174Z,43.00
2022-11-29T03:10:59.600Z,43.50
2022-11-29T03:13:26.030Z,43.20
2022-11-29T03:15:52.514Z,43.50
2022-11-29T03:18:19.025Z,43.50
2022-11-29T03:20:45.490Z,47.40
2022-11-29T03:23:11.970Z,43.60
2022-11-29T03:25:38.402Z,42.70
2022-11-29T03:28:04.869Z,43.60
2022-11-29T03:30:31.323Z,43.60
2022-11-29T03:32:57.790Z,44.10
2022-11-29T03:35:24.257Z,43.10
2022-11-29T03:37:50.746Z,43.50
2022-11-29T03:40:17.195Z,43.60
2022-11-29T03:42:43.618Z,43.10
2022-11-29T03:45:10.057Z,43.60
2022-11-29T03:47:36.498Z,43.60
2022-11-29T03:50:02.966Z,43.60
2022-11-29T03:52:29.440Z,43.00
2022-11-29T03:54:55.874Z,43.50
2022-11-29T03:57:22.342Z,43.60
2022-11-29T03:59:48.767Z,43.60
2022-11-29T04:02:15.327Z,43.60
2022-11-29T04:04:42.028Z,43.00
2022-11-29T04:07:08.614Z,43.50
2022-11-29T04:09:35.041Z,43.60
2022-11-29T04:12:01.505Z,43.30
2022-11-29T04:14:27.969Z,43.60
2022-11-29T04:16:54.403Z,43.50
2022-11-29T04:19:20.837Z,43.70
2022-11-29T04:21:47.272Z,43.20
2022-11-29T04:24:13.738Z,43.70
2022-11-29T04:26:40.179Z,43.30
2022-11-29T04:29:06.647Z,43.70
2022-11-29T04:31:33.276Z,43.20
2022-11-29T04:33:59.790Z,43.80
2022-11-29T04:36:26.226Z,43.40
2022-11-29T04:38:52.694Z,43.10
2022-11-29T04:41:19.178Z,42.80
2022-11-29T04:43:45.675Z,43.00
2022-11-29T04:46:12.192Z,43.60
2022-11-29T04:48:38.642Z,43.10
2022-11-29T04:51:05.092Z,43.10
2022-11-29T04:53:31.559Z,43.50
2022-11-29T04:58:25.032Z,43.00
2022-11-29T05:00:51.483Z,43.00
2022-11-29T05:03:17.952Z,43.50
2022-11-29T05:05:44.421Z,43.50
2022-11-29T05:08:10.901Z,43.10
2022-11-29T05:10:37.385Z,43.20
2022-11-29T05:13:03.852Z,43.50
2022-11-29T05:15:30.286Z,43.50
2022-11-29T05:17:56.713Z,43.60
2022-11-29T05:22:50.219Z,43.00
2022-11-29T05:25:16.653Z,42.90
2022-11-29T05:27:43.144Z,43.60
2022-11-29T05:30:09.651Z,43.50
2022-11-29T05:32:36.078Z,43.00
2022-11-29T05:35:02.508Z,43.50
2022-11-29T05:37:28.968Z,43.50
2022-11-29T05:39:55.443Z,43.60
2022-11-29T05:42:21.983Z,43.10
2022-11-29T05:44:48.454Z,43.60
2022-11-29T05:47:14.916Z,43.60
2022-11-29T05:49:41.409Z,43.50
2022-11-29T05:52:08.006Z,43.30
2022-11-29T05:54:34.454Z,43.70
2022-11-29T05:57:00.901Z,43.70
2022-11-29T05:59:27.367Z,43.80
2022-11-29T06:01:53.895Z,44.00
2022-11-29T06:04:20.379Z,44.10
2022-11-29T06:06:46.852Z,44.00
2022-11-29T06:09:13.316Z,44.10
2022-11-29T06:11:39.842Z,44.60
2022-11-29T06:14:06.292Z,44.60
2022-11-29T06:16:32.768Z,44.70
2022-11-29T06:18:59.286Z,44.80
2022-11-29T06:21:25.787Z,44.50
2022-11-29T06:23:52.275Z,44.80
2022-11-29T06:26:18.698Z,44.20
2022-11-29T06:28:45.184Z,44.20
2022-11-29T06:31:11.675Z,44.40
2022-11-29T06:33:38.294Z,44.80
2022-11-29T06:36:04.719Z,44.80
2022-11-29T06:38:31.186Z,44.40
2022-11-29T06:41:01.853Z,44.80
2022-11-29T06:43:28.977Z,44.80
2022-11-29T06:45:55.407Z,44.50
2022-11-29T06:48:21.830Z,44.90
2022-11-29T06:50:48.246Z,44.40
2022-11-29T06:53:14.720Z,45.00
2022-11-29T06:55:41.156Z,44.80
2022-11-29T06:58:07.627Z,44.80
2022-11-29T07:00:34.161Z,44.80
2022-11-29T07:03:00.694Z,44.70
2022-11-29T07:05:27.146Z,44.70
2022-11-29T07:07:53.649Z,44.60
2022-11-29T07:10:20.161Z,44.10
2022-11-29T07:12:46.592Z,44.00
2022-11-29T07:15:13.019Z,44.50
2022-11-29T07:17:39.474Z,43.90
2022-11-29T07:20:05.899Z,44.50
2022-11-29T07:22:32.325Z,44.50
2022-11-29T07:24:58.806Z,44.40
2022-11-29T07:27:25.237Z,44.50
2022-11-29T07:29:51.697Z,44.40
2022-11-29T07:32:18.150Z,44.40
2022-11-29T07:34:44.847Z,44.40
2022-11-29T07:37:11.547Z,44.40
2022-11-29T07:39:38.026Z,43.90
2022-11-29T07:42:04.512Z,44.40
2022-11-29T07:44:30.967Z,44.40
2022-11-29T07:46:57.437Z,44.40
2022-11-29T07:49:23.874Z,43.90
2022-11-29T07:51:50.329Z,44.40
2022-11-29T07:54:16.803Z,44.40
2022-11-29T07:56:43.278Z,44.40
2022-11-29T07:59:09.748Z,44.40
2022-11-29T08:01:36.269Z,44.40
2022-11-29T08:04:02.754Z,44.40
2022-11-29T08:06:29.179Z,44.40
2022-11-29T08:08:55.654Z,44.40
2022-11-29T08:11:22.122Z,44.30
2022-11-29T08:13:48.558Z,44.30
2022-11-29T08:16:15.060Z,44.40
2022-11-29T08:18:41.597Z,44.30
2022-11-29T08:21:08.063Z,43.80
2022-11-29T08:23:34.535Z,44.00
2022-11-29T08:26:00.992Z,43.80
2022-11-29T08:28:27.453Z,44.00
2022-11-29T08:30:53.879Z,44.50
2022-11-29T08:33:20.337Z,43.90
2022-11-29T08:35:46.821Z,44.50
2022-11-29T08:38:13.294Z,44.40
2022-11-29T08:40:39.722Z,44.40
2022-11-29T08:43:06.142Z,44.30
2022-11-29T08:45:32.602Z,44.30
2022-11-29T08:47:59.043Z,44.30
2022-11-29T08:50:25.519Z,44.30
2022-11-29T08:52:51.958Z,44.30
2022-11-29T08:55:18.368Z,44.30
2022-11-29T08:57:44.826Z,43.90
2022-11-29T09:00:11.309Z,44.20
2022-11-29T09:02:37.859Z,44.20
2022-11-29T09:05:04.389Z,43.70
2022-11-29T09:07:30.903Z,44.20
2022-11-29T09:09:57.369Z,44.10
2022-11-29T09:12:23.838Z,44.30
2022-11-29T09:14:50.279Z,44.30
2022-11-29T09:17:16.710Z,43.70
2022-11-29T09:19:43.131Z,44.20
2022-11-29T09:22:09.621Z,44.30
2022-11-29T09:24:36.075Z,43.90
2022-11-29T09:27:02.527Z,44.20
2022-11-29T09:29:28.947Z,43.80
2022-11-29T09:31:55.390Z,44.20
2022-11-29T09:34:21.834Z,44.30
2022-11-29T09:36:48.298Z,44.30
2022-11-29T09:39:14.738Z,43.90
2022-11-29T09:41:45.583Z,44.40
2022-11-29T09:44:14.576Z,44.30
2022-11-29T09:46:41.042Z,44.30
2022-11-29T09:49:07.506Z,44.30
2022-11-29T09:51:33.943Z,43.70
2022-11-29T09:54:00.377Z,44.30
2022-11-29T09:56:26.821Z,43.70
2022-11-29T09:58:53.287Z,44.30
2022-11-29T10:01:19.803Z,43.70
2022-11-29T10:03:46.323Z,43.70
2022-11-29T10:06:12.791Z,44.20
2022-11-29T10:08:39.301Z,43.80
2022-11-29T10:11:05.790Z,44.10
2022-11-29T10:13:32.265Z,44.10
2022-11-29T10:15:58.703Z,43.60
2022-11-29T10:18:25.122Z,43.60
2022-11-29T10:20:51.538Z,43.60
2022-11-29T10:23:18.000Z,44.10
2022-11-29T10:25:44.456Z,43.60
2022-11-29T10:28:10.929Z,44.20
2022-11-29T10:30:37.446Z,43.70
2022-11-29T10:33:03.996Z,44.20
2022-11-29T10:35:30.495Z,43.80
2022-11-29T10:38:29.006Z,43.10
2022-11-29T10:40:43.404Z,43.60
2022-11-29T10:43:09.866Z,43.70
2022-11-29T10:45:36.320Z,44.10
2022-11-29T10:48:02.743Z,44.20
2022-11-29T10:50:29.187Z,44.20
2022-11-29T10:52:59.890Z,43.60
2022-11-29T10:55:26.631Z,44.20
2022-11-29T10:57:53.082Z,44.20
2022-11-29T11:00:19.534Z,44.30
2022-11-29T11:02:45.988Z,44.30
2022-11-29T11:05:12.522Z,43.80
2022-11-29T11:07:39.075Z,44.30
2022-11-29T11:10:05.540Z,44.40
2022-11-29T11:12:31.969Z,44.40
2022-11-29T11:14:58.399Z,44.30
2022-11-29T11:17:24.844Z,44.30
2022-11-29T11:19:51.284Z,43.80
2022-11-29T11:22:17.741Z,43.70
2022-11-29T11:24:44.392Z,44.30
2022-11-29T11:27:11.059Z,44.40
2022-11-29T11:29:37.525Z,43.70
2022-11-29T11:32:03.958Z,44.00
2022-11-29T11:34:30.381Z,44.40
2022-11-29T11:36:56.805Z,44.40
2022-11-29T11:39:23.266Z,44.10
2022-11-29T11:41:49.753Z,44.60
2022-11-29T11:44:45.704Z,44.00
2022-11-29T11:47:02.638Z,44.50
2022-11-29T11:49:29.071Z,44.10
2022-11-29T11:51:55.550Z,43.90
2022-11-29T11:54:22.022Z,44.50
2022-11-29T11:56:48.452Z,44.50
2022-11-29T11:59:14.886Z,44.10
2022-11-29T12:01:41.370Z,44.50
2022-11-29T12:04:07.794Z,43.90
2022-11-29T12:06:34.584Z,44.50
2022-11-29T12:09:01.068Z,44.50
2022-11-29T12:11:27.525Z,43.90
2022-11-29T12:13:53.994Z,44.50
2022-11-29T12:16:20.516Z,43.60
2022-11-29T12:18:47.057Z,44.50
2022-11-29T12:21:13.546Z,44.50
2022-11-29T12:23:39.975Z,44.00
2022-11-29T12:26:06.530Z,44.50
2022-11-29T12:28:33.006Z,44.50
2022-11-29T12:30:59.486Z,43.90
2022-11-29T12:33:25.935Z,44.60
2022-11-29T12:35:52.388Z,44.50
2022-11-29T12:38:18.866Z,44.50
2022-11-29T12:40:45.295Z,43.90
2022-11-29T12:43:11.706Z,44.50
2022-11-29T12:45:38.153Z,44.00
2022-11-29T12:48:04.633Z,44.50
2022-11-29T12:50:31.079Z,44.50
2022-11-29T12:52:57.520Z,44.40
2022-11-29T12:55:23.954Z,44.50
2022-11-29T12:57:50.367Z,44.60
2022-11-29T13:00:16.802Z,44.60
2022-11-29T13:02:43.283Z,44.80
2022-11-29T13:05:09.812Z,44.90
2022-11-29T13:07:36.303Z,44.80
2022-11-29T13:10:02.838Z,44.30
2022-11-29T13:12:29.278Z,44.60
2022-11-29T13:14:55.896Z,44.80
2022-11-29T13:17:22.409Z,44.70
2022-11-29T13:19:48.900Z,44.10
2022-11-29T13:22:15.357Z,44.70
2022-11-29T13:24:43.132Z,44.70
2022-11-29T13:27:09.716Z,44.60
2022-11-29T13:29:36.198Z,44.30
2022-11-29T13:32:02.671Z,44.30
2022-11-29T13:34:29.118Z,44.00
2022-11-29T13:36:55.595Z,44.80
2022-11-29T13:39:22.044Z,44.30
2022-11-29T13:41:48.546Z,44.30
2022-11-29T13:44:15.072Z,44.90
2022-11-29T13:46:41.604Z,45.00
2022-11-29T13:49:08.154Z,44.60
2022-11-29T13:51:34.634Z,44.40
2022-11-29T13:54:01.133Z,45.20
2022-11-29T13:56:27.605Z,44.70
2022-11-29T13:58:54.959Z,45.20
2022-11-29T14:01:21.544Z,44.70
2022-11-29T14:03:48.010Z,44.60
2022-11-29T14:06:14.518Z,45.20
2022-11-29T14:09:17.207Z,44.80
2022-11-29T14:11:27.420Z,44.50
2022-11-29T14:13:53.910Z,45.00
2022-11-29T14:16:20.416Z,44.40
2022-11-29T14:18:46.955Z,44.50
2022-11-29T14:21:13.407Z,44.60
2022-11-29T14:23:39.845Z,45.00
2022-11-29T14:26:06.319Z,45.00
2022-11-29T14:28:32.818Z,45.00
2022-11-29T14:30:59.343Z,45.00
2022-11-29T14:33:25.843Z,44.90
2022-11-29T14:35:52.295Z,44.90
2022-11-29T14:38:18.764Z,44.90
2022-11-29T14:40:45.197Z,44.30
2022-11-29T14:43:11.635Z,44.40
2022-11-29T14:45:38.101Z,44.70
2022-11-29T14:48:04.537Z,44.90
2022-11-29T14:50:30.989Z,44.80
2022-11-29T14:52:57.451Z,44.40
2022-11-29T14:55:23.923Z,44.90
2022-11-29T14:57:50.410Z,44.50
2022-11-29T15:00:16.962Z,44.40
2022-11-29T15:02:43.495Z,44.80
2022-11-29T15:05:09.995Z,44.80
2022-11-29T15:07:36.490Z,44.40
2022-11-29T15:10:03.005Z,44.30
2022-11-29T15:12:29.607Z,44.70
2022-11-29T15:14:56.039Z,44.70
2022-11-29T15:17:22.534Z,44.80
2022-11-29T15:19:48.972Z,44.10
2022-11-29T15:22:15.416Z,45.20
2022-11-29T15:24:41.847Z,44.60
2022-11-29T15:27:08.280Z,44.30
2022-11-29T15:29:34.755Z,44.50
2022-11-29T15:32:01.236Z,44.90
2022-11-29T15:34:27.687Z,44.80
2022-11-29T15:36:54.157Z,44.90
2022-11-29T15:39:20.607Z,44.30
2022-11-29T15:41:47.102Z,44.80
2022-11-29T15:44:13.754Z,44.20
2022-11-29T15:46:40.229Z,44.80
2022-11-29T15:49:06.700Z,44.30
2022-11-29T15:51:33.157Z,44.40
2022-11-29T15:54:11.568Z,44.80
2022-11-29T15:56:39.086Z,44.80
2022-11-29T15:59:05.570Z,44.40
2022-11-29T16:01:32.134Z,44.30
2022-11-29T16:03:58.687Z,44.40
2022-11-29T16:06:25.161Z,44.90
2022-11-29T16:08:51.620Z,45.00
2022-11-29T16:11:18.056Z,45.00
2022-11-29T16:13:44.560Z,44.90
2022-11-29T16:16:11.150Z,44.90
2022-11-29T16:18:37.713Z,44.40
2022-11-29T16:21:04.196Z,45.00
2022-11-29T16:23:30.664Z,45.50
2022-11-29T16:25:57.163Z,44.90
2022-11-29T16:28:23.642Z,44.40
2022-11-29T16:30:50.142Z,45.00
2022-11-29T16:33:16.566Z,44.90
2022-11-29T16:35:43.129Z,44.50
2022-11-29T16:38:09.626Z,45.00
2022-11-29T16:40:36.117Z,45.00
2022-11-29T16:43:02.597Z,44.60
2022-11-29T16:45:29.168Z,44.50
2022-11-29T16:47:55.621Z,44.50
2022-11-29T16:50:22.100Z,44.80
2022-11-29T16:52:50.857Z,45.10
2022-11-29T16:55:21.435Z,44.70
2022-11-29T16:57:47.942Z,44.50
2022-11-29T17:00:14.409Z,44.90
2022-11-29T17:02:40.906Z,44.60
2022-11-29T17:05:07.382Z,44.90
2022-11-29T17:07:33.872Z,44.90
2022-11-29T17:10:00.376Z,44.90
2022-11-29T17:12:26.838Z,44.90
2022-11-29T17:14:53.270Z,44.90
2022-11-29T17:17:19.697Z,44.90
2022-11-29T17:19:46.126Z,44.50
2022-11-29T17:22:12.585Z,44.40
2022-11-29T17:27:09.986Z,44.30
2022-11-29T17:29:36.464Z,44.50
2022-11-29T17:32:02.952Z,44.90
2022-11-29T17:34:29.482Z,44.60
2022-11-29T17:36:55.926Z,44.90
2022-11-29T17:39:22.387Z,44.90
2022-11-29T17:41:48.884Z,44.40
2022-11-29T17:44:15.330Z,44.90
2022-11-29T17:46:41.792Z,44.30
2022-11-29T17:49:08.212Z,44.90
2022-11-29T17:51:52.342Z,44.90
2022-11-29T17:54:19.417Z,44.90
2022-11-29T17:56:45.917Z,45.00
2022-11-29T17:59:12.342Z,45.00
2022-11-29T18:01:38.888Z,44.40
2022-11-29T18:04:05.428Z,44.40
2022-11-29T18:06:31.857Z,44.90
2022-11-29T18:08:58.350Z,44.50
2022-11-29T18:11:24.883Z,44.40
2022-11-29T18:13:51.357Z,45.00
2022-11-29T18:16:17.914Z,44.90
2022-11-29T18:18:44.404Z,44.90
2022-11-29T18:21:10.842Z,44.90
2022-11-29T18:23:37.294Z,44.60
2022-11-29T18:26:03.800Z,45.20
2022-11-29T18:28:30.227Z,45.40
2022-11-29T18:30:56.724Z,45.40
2022-11-29T18:33:23.198Z,45.40
2022-11-29T18:35:49.653Z,45.40
2022-11-29T18:38:16.652Z,45.40
2022-11-29T18:40:43.329Z,45.10
2022-11-29T18:43:09.754Z,45.00
2022-11-29T18:45:36.264Z,45.50
2022-11-29T18:48:02.786Z,45.60
2022-11-29T18:50:29.266Z,45.00
2022-11-29T18:52:55.769Z,45.00
2022-11-29T18:55:22.198Z,45.00
2022-11-29T18:57:48.672Z,45.50
2022-11-29T19:00:15.170Z,45.40
2022-11-29T19:02:41.652Z,45.30
2022-11-29T19:05:08.126Z,45.30
2022-11-29T19:07:34.634Z,45.40
2022-11-29T19:10:01.143Z,45.00
2022-11-29T19:12:27.598Z,45.30
2022-11-29T19:14:54.206Z,45.30
2022-11-29T19:17:20.817Z,45.40
2022-11-29T19:19:47.611Z,44.90
2022-11-29T19:22:14.279Z,45.30
2022-11-29T19:24:40.855Z,45.00
2022-11-29T19:27:07.294Z,45.00
2022-11-29T19:32:06.100Z,44.80
2022-11-29T19:34:32.573Z,45.30
2022-11-29T19:36:59.009Z,45.50
2022-11-29T19:39:25.484Z,45.40
2022-11-29T19:41:51.914Z,44.80
2022-11-29T19:44:18.373Z,44.70
2022-11-29T19:46:44.860Z,44.70
2022-11-29T19:49:11.311Z,45.30
2022-11-29T19:51:37.757Z,45.00
2022-11-29T19:54:04.264Z,45.50
2022-11-29T19:56:30.775Z,45.00
2022-11-29T19:58:57.232Z,44.80
2022-11-29T20:01:23.816Z,45.40
2022-11-29T20:03:50.271Z,45.30
2022-11-29T20:06:16.707Z,45.50
2022-11-29T20:08:43.176Z,45.50
2022-11-29T20:11:09.662Z,45.50
2022-11-29T20:13:36.141Z,45.40
2022-11-29T20:16:02.676Z,46.40
2022-11-29T20:18:29.176Z,45.50
2022-11-29T20:20:55.619Z,45.30
2022-11-29T20:23:22.092Z,45.90
2022-11-29T20:25:48.534Z,45.30
2022-11-29T20:28:15.010Z,45.80
2022-11-29T20:30:41.599Z,45.00
2022-11-29T20:33:08.134Z,45.20
2022-11-29T20:35:34.599Z,45.60
2022-11-29T20:38:01.080Z,45.60
2022-11-29T20:40:27.563Z,44.90
2022-11-29T20:42:54.050Z,45.50
2022-11-29T20:45:20.497Z,45.50
2022-11-29T20:47:46.991Z,44.90
2022-11-29T20:50:13.460Z,45.40
2022-11-29T20:52:39.982Z,45.40
2022-11-29T20:55:06.471Z,45.00
2022-11-29T20:57:32.925Z,45.50
2022-11-29T20:59:59.417Z,45.20
2022-11-29T21:02:25.881Z,45.60
2022-11-29T21:04:52.365Z,45.50
2022-11-29T21:07:18.904Z,45.50
2022-11-29T21:09:45.405Z,45.10
2022-11-29T21:12:11.865Z,45.50
2022-11-29T21:14:38.353Z,45.50
2022-11-29T21:17:04.825Z,45.60
2022-11-29T21:19:31.297Z,45.00
2022-11-29T21:21:57.756Z,45.40
2022-11-29T21:24:24.258Z,45.00
2022-11-29T21:26:50.772Z,45.10
2022-11-29T21:29:17.245Z,45.60
2022-11-29T21:31:43.788Z,45.60
2022-11-29T21:34:10.267Z,45.60
2022-11-29T21:36:36.730Z,45.60
2022-11-29T21:39:05.298Z,45.50
2022-11-29T21:41:31.949Z,45.50
2022-11-29T21:44:06.626Z,45.10
2022-11-29T21:46:33.935Z,45.60
2022-11-29T21:49:00.469Z,45.60
2022-11-29T21:51:27.017Z,45.00
2022-11-29T21:53:53.512Z,45.70
2022-11-29T21:56:19.962Z,45.70
2022-11-29T21:58:46.438Z,45.00
2022-11-29T22:01:12.863Z,45.70
2022-11-29T22:03:39.311Z,45.60
2022-11-29T22:06:05.782Z,45.60
2022-11-29T22:08:32.207Z,45.00
2022-11-29T22:10:58.641Z,45.00
2022-11-29T22:13:25.110Z,45.60
2022-11-29T22:15:51.660Z,45.50
2022-11-29T22:18:18.165Z,44.90
2022-11-29T22:20:44.671Z,44.80
2022-11-29T22:23:11.101Z,45.40
2022-11-29T22:25:37.646Z,45.50
2022-11-29T22:28:04.133Z,45.00
2022-11-29T22:30:30.604Z,44.90
2022-11-29T22:32:57.121Z,44.80
2022-11-29T22:35:23.568Z,45.50
2022-11-29T22:37:50.054Z,45.40
2022-11-29T22:40:18.434Z,45.50
2022-11-29T22:42:44.920Z,45.40
2022-11-29T22:45:11.413Z,44.80
2022-11-29T22:47:37.873Z,45.40
2022-11-29T22:50:04.329Z,45.30
2022-11-29T22:52:30.810Z,45.30
2022-11-29T22:55:02.869Z,45.30
2022-11-29T22:57:31.150Z,44.70
2022-11-29T22:59:57.649Z,45.20
2022-11-29T23:02:24.192Z,45.20
2022-11-29T23:04:50.673Z,44.70
2022-11-29T23:07:17.160Z,44.60
2022-11-29T23:09:43.726Z,44.70
2022-11-29T23:12:10.159Z,45.20
2022-11-29T23:14:36.591Z,45.10
2022-11-29T23:17:03.060Z,45.10
2022-11-29T23:19:29.561Z,44.50
2022-11-29T23:21:56.027Z,45.00
2022-11-29T23:24:22.502Z,44.90
2022-11-29T23:26:48.975Z,44.60
2022-11-29T23:29:15.427Z,45.00
2022-11-29T23:31:41.877Z,45.00
2022-11-29T23:34:08.326Z,45.00
2022-11-29T23:36:34.799Z,45.00
2022-11-29T23:41:28.269Z,44.30
2022-11-29T23:43:54.715Z,44.30
2022-11-29T23:46:21.196Z,44.80
2022-11-29T23:48:47.632Z,44.30
2022-11-29T23:51:14.100Z,44.80
2022-11-29T23:53:40.581Z,44.20
2022-11-29T23:56:07.053Z,44.50
2022-11-29T23:58:33.480Z,44.90
